createdAt,value
2022-12-31T00:00:50.689Z,3.56
2022-12-31T00:04:03.487Z,3.50
2022-12-31T00:07:06.099Z,3.52
2022-12-31T00:10:09.710Z,3.55
2022-12-31T00:13:13.396Z,3.57
2022-12-31T00:16:19.785Z,3.54
2022-12-31T00:19:22.416Z,3.50
2022-12-31T00:22:25.399Z,3.48
2022-12-31T00:25:27.978Z,3.42
2022-12-31T00:28:30.881Z,3.47
2022-12-31T00:31:35.929Z,3.52
2022-12-31T00:34:38.949Z,3.41
2022-12-31T00:37:41.599Z,3.36
2022-12-31T00:40:44.646Z,3.42
2022-12-31T00:43:47.841Z,3.37
2022-12-31T00:46:51.257Z,3.37
2022-12-31T00:49:53.886Z,3.33
2022-12-31T00:52:57.307Z,3.41
2022-12-31T00:56:08.962Z,3.43
2022-12-31T00:59:12.055Z,3.45
2022-12-31T01:02:14.875Z,3.35
2022-12-31T01:05:18.010Z,3.28
2022-12-31T01:08:20.610Z,3.36
2022-12-31T01:11:24.676Z,3.25
2022-12-31T01:14:27.371Z,3.30
2022-12-31T01:17:31.247Z,3.35
2022-12-31T01:20:39.111Z,3.38
2022-12-31T01:23:42.716Z,3.37
2022-12-31T01:26:45.905Z,3.37
2022-12-31T01:29:49.292Z,3.43
2022-12-31T01:32:51.860Z,3.41
2022-12-31T01:35:54.659Z,3.47
2022-12-31T01:38:59.573Z,3.51
2022-12-31T01:42:02.624Z,3.48
2022-12-31T01:45:11.267Z,3.60
2022-12-31T01:48:17.403Z,3.66
2022-12-31T01:51:20.888Z,3.58
2022-12-31T01:54:25.650Z,3.70
2022-12-31T01:57:28.368Z,3.69
2022-12-31T02:00:32.575Z,3.75
2022-12-31T02:03:35.652Z,3.80
2022-12-31T02:06:52.576Z,3.81
2022-12-31T02:09:55.316Z,3.85
2022-12-31T02:12:58.800Z,3.87
2022-12-31T02:16:08.512Z,3.89
2022-12-31T02:19:36.149Z,3.87
2022-12-31T02:22:44.583Z,3.94
2022-12-31T02:25:50.656Z,4.00
2022-12-31T02:29:17.635Z,3.98
2022-12-31T02:32:36.208Z,4.05
2022-12-31T02:35:58.804Z,4.14
2022-12-31T02:39:04.239Z,4.24
2022-12-31T02:42:07.285Z,4.28
2022-12-31T02:45:13.647Z,4.31
2022-12-31T02:48:46.077Z,4.30
2022-12-31T02:52:04.037Z,4.25
2022-12-31T02:55:41.730Z,4.30
2022-12-31T02:59:27.464Z,4.38
2022-12-31T03:02:31.653Z,4.36
2022-12-31T03:05:39.857Z,4.37
2022-12-31T03:09:01.767Z,4.44
2022-12-31T03:12:25.175Z,4.44
2022-12-31T03:15:30.594Z,4.49
2022-12-31T03:18:52.081Z,4.47
2022-12-31T03:22:13.287Z,4.43
2022-12-31T03:25:38.272Z,4.50
2022-12-31T03:28:43.580Z,4.54
2022-12-31T03:31:46.683Z,4.51
2022-12-31T03:34:50.052Z,4.56
2022-12-31T03:37:53.352Z,4.67
2022-12-31T03:40:56.211Z,4.74
2022-12-31T03:43:59.128Z,4.76
2022-12-31T03:47:01.733Z,4.78
2022-12-31T03:50:05.720Z,4.89
2022-12-31T03:53:08.419Z,4.87
2022-12-31T03:56:11.552Z,4.95
2022-12-31T03:59:14.218Z,4.95
2022-12-31T04:02:18.543Z,5.00
2022-12-31T04:05:23.324Z,5.09
2022-12-31T04:08:26.299Z,5.22
2022-12-31T04:11:28.865Z,5.34
2022-12-31T04:14:31.818Z,5.42
2022-12-31T04:17:34.431Z,5.49
2022-12-31T04:20:38.532Z,5.61
2022-12-31T04:23:40.943Z,5.59
2022-12-31T04:26:44.531Z,5.73
2022-12-31T04:29:47.107Z,5.80
2022-12-31T04:32:50.209Z,5.91
2022-12-31T04:35:52.713Z,5.86
2022-12-31T04:38:56.784Z,5.82
2022-12-31T04:41:59.403Z,5.90
2022-12-31T04:45:02.814Z,5.95
2022-12-31T04:48:05.771Z,5.83
2022-12-31T04:51:09.243Z,5.84
2022-12-31T04:54:11.825Z,5.95
2022-12-31T04:57:14.945Z,5.99
2022-12-31T05:00:17.659Z,5.97
2022-12-31T05:03:21.456Z,5.98
2022-12-31T05:06:24.362Z,6.04
2022-12-31T05:09:28.615Z,6.04
2022-12-31T05:12:31.330Z,6.05
2022-12-31T05:15:34.686Z,6.15
2022-12-31T05:18:37.641Z,6.15
2022-12-31T05:21:40.599Z,6.20
2022-12-31T05:24:43.217Z,6.24
2022-12-31T05:27:46.215Z,6.23
2022-12-31T05:30:51.129Z,6.27
2022-12-31T05:33:54.573Z,6.25
2022-12-31T05:36:57.173Z,6.36
2022-12-31T05:40:00.417Z,6.40
2022-12-31T05:43:02.890Z,6.39
2022-12-31T05:46:05.902Z,6.41
2022-12-31T05:49:08.555Z,6.42
2022-12-31T05:52:11.581Z,6.55
2022-12-31T05:55:14.248Z,6.53
2022-12-31T05:58:18.176Z,6.56
2022-12-31T06:01:20.839Z,6.58
2022-12-31T06:04:23.992Z,6.68
2022-12-31T06:07:26.685Z,6.65
2022-12-31T06:10:29.723Z,6.62
2022-12-31T06:13:32.173Z,6.66
2022-12-31T06:16:35.107Z,6.76
2022-12-31T06:19:37.671Z,6.75
2022-12-31T06:22:40.636Z,6.73
2022-12-31T06:25:43.499Z,6.74
2022-12-31T06:28:46.391Z,6.83
2022-12-31T06:31:48.952Z,6.84
2022-12-31T06:34:52.238Z,6.86
2022-12-31T06:37:54.886Z,6.86
2022-12-31T06:40:57.850Z,6.88
2022-12-31T06:44:00.480Z,6.82
2022-12-31T06:47:03.456Z,6.81
2022-12-31T06:50:07.340Z,6.77
2022-12-31T06:53:10.655Z,6.82
2022-12-31T06:56:27.857Z,6.80
2022-12-31T06:59:34.650Z,6.87
2022-12-31T07:02:58.207Z,6.93
2022-12-31T07:06:44.346Z,7.04
2022-12-31T07:09:58.032Z,7.04
2022-12-31T07:13:12.168Z,6.98
2022-12-31T07:16:39.553Z,7.09
2022-12-31T07:20:12.250Z,7.16
2022-12-31T07:23:15.283Z,7.09
2022-12-31T07:26:49.930Z,7.21
2022-12-31T07:30:30.847Z,7.27
2022-12-31T07:33:54.507Z,7.25
2022-12-31T07:37:20.742Z,7.32
2022-12-31T07:40:45.026Z,7.33
2022-12-31T07:44:06.571Z,7.35
2022-12-31T07:47:26.836Z,7.46
2022-12-31T07:50:29.935Z,7.53
2022-12-31T07:53:33.074Z,7.63
2022-12-31T07:56:35.913Z,7.63
2022-12-31T07:59:54.341Z,7.63
2022-12-31T08:03:11.342Z,7.75
2022-12-31T08:06:53.096Z,7.77
2022-12-31T08:10:15.658Z,7.86
2022-12-31T08:13:20.969Z,7.92
2022-12-31T08:16:23.859Z,7.88
2022-12-31T08:19:32.099Z,7.90
2022-12-31T08:22:43.369Z,7.93
2022-12-31T08:26:12.448Z,7.94
2022-12-31T08:29:26.441Z,7.93
2022-12-31T08:32:34.532Z,8.02
2022-12-31T08:36:02.753Z,8.00
2022-12-31T08:39:38.267Z,8.17
2022-12-31T08:43:04.923Z,8.14
2022-12-31T08:46:16.022Z,8.24
2022-12-31T08:49:18.867Z,8.23
2022-12-31T08:52:26.357Z,8.36
2022-12-31T08:55:29.184Z,8.24
2022-12-31T08:58:50.548Z,8.49
2022-12-31T09:02:08.539Z,8.60
2022-12-31T09:05:54.438Z,8.66
2022-12-31T09:09:24.605Z,8.80
2022-12-31T09:13:00.219Z,8.76
2022-12-31T09:16:17.468Z,8.77
2022-12-31T09:19:20.333Z,8.82
2022-12-31T09:22:23.333Z,8.86
2022-12-31T09:25:27.131Z,8.92
2022-12-31T09:28:52.760Z,8.92
2022-12-31T09:31:58.420Z,8.92
2022-12-31T09:35:40.413Z,9.02
2022-12-31T09:39:15.039Z,9.03
2022-12-31T09:42:35.799Z,9.12
2022-12-31T09:46:12.433Z,9.25
2022-12-31T09:49:33.547Z,9.38
2022-12-31T09:53:12.774Z,9.34
2022-12-31T09:56:27.593Z,9.47
2022-12-31T09:59:34.883Z,9.56
2022-12-31T10:03:02.239Z,9.67
2022-12-31T10:06:23.894Z,9.76
2022-12-31T10:09:41.984Z,9.77
2022-12-31T10:13:13.986Z,9.81
2022-12-31T10:16:25.729Z,9.89
2022-12-31T10:19:50.387Z,9.87
2022-12-31T10:23:15.479Z,10.04
2022-12-31T10:26:29.416Z,10.09
2022-12-31T10:29:34.912Z,10.06
2022-12-31T10:32:46.037Z,10.03
2022-12-31T10:35:58.416Z,10.10
2022-12-31T10:39:08.951Z,10.18
2022-12-31T10:42:26.326Z,10.21
2022-12-31T10:46:07.895Z,10.27
2022-12-31T10:49:21.586Z,10.37
2022-12-31T10:52:43.617Z,10.40
2022-12-31T10:56:34.981Z,10.67
2022-12-31T10:59:43.765Z,11.07
2022-12-31T11:03:22.154Z,11.21
2022-12-31T11:06:59.539Z,11.07
2022-12-31T11:10:31.753Z,10.99
2022-12-31T11:13:46.103Z,11.06
2022-12-31T11:17:04.044Z,11.12
2022-12-31T11:20:44.220Z,11.13
2022-12-31T11:24:10.581Z,11.09
2022-12-31T11:27:37.072Z,11.10
2022-12-31T11:31:11.782Z,11.10
2022-12-31T11:34:37.892Z,11.03
2022-12-31T11:37:43.169Z,11.09
2022-12-31T11:41:26.465Z,11.12
2022-12-31T11:44:47.024Z,11.20
2022-12-31T11:48:32.241Z,11.22
2022-12-31T11:52:02.949Z,11.24
2022-12-31T11:55:16.922Z,11.31
2022-12-31T11:58:28.843Z,11.24
2022-12-31T12:02:03.663Z,11.31
2022-12-31T12:05:10.992Z,11.30
2022-12-31T12:08:15.161Z,11.31
2022-12-31T12:11:27.986Z,11.41
2022-12-31T12:14:35.702Z,11.45
2022-12-31T12:17:39.685Z,11.44
2022-12-31T12:20:44.886Z,11.40
2022-12-31T12:24:16.991Z,11.35
2022-12-31T12:27:22.426Z,11.17
2022-12-31T12:30:28.416Z,11.03
2022-12-31T12:33:42.709Z,11.00
2022-12-31T12:36:48.488Z,10.95
2022-12-31T12:40:09.774Z,10.86
2022-12-31T12:43:23.601Z,10.86
2022-12-31T12:46:43.551Z,10.81
2022-12-31T12:49:50.164Z,10.83
2022-12-31T12:53:14.735Z,10.77
2022-12-31T12:56:25.010Z,10.72
2022-12-31T12:59:37.069Z,10.91
2022-12-31T13:02:54.887Z,10.99
2022-12-31T13:06:09.736Z,11.00
2022-12-31T13:09:12.205Z,11.03
2022-12-31T13:12:17.440Z,10.97
2022-12-31T13:15:30.040Z,10.89
2022-12-31T13:18:43.846Z,10.93
2022-12-31T13:22:05.365Z,10.96
2022-12-31T13:25:23.478Z,11.07
2022-12-31T13:28:26.863Z,11.07
2022-12-31T13:31:34.373Z,11.14
2022-12-31T13:34:42.591Z,11.17
2022-12-31T13:37:45.832Z,11.24
2022-12-31T13:40:57.774Z,11.36
2022-12-31T13:44:34.832Z,11.30
2022-12-31T13:48:01.995Z,11.28
2022-12-31T13:51:18.644Z,11.47
2022-12-31T13:54:51.944Z,11.50
2022-12-31T13:58:17.318Z,11.47
2022-12-31T14:01:38.383Z,11.52
2022-12-31T14:04:47.925Z,11.58
2022-12-31T14:07:59.491Z,11.68
2022-12-31T14:11:28.024Z,11.64
2022-12-31T14:14:47.015Z,11.69
2022-12-31T14:18:05.228Z,11.68
2022-12-31T14:21:22.299Z,11.64
2022-12-31T14:24:37.396Z,11.70
2022-12-31T14:27:42.650Z,11.75
2022-12-31T14:30:46.638Z,11.72
2022-12-31T14:34:09.147Z,11.77
2022-12-31T14:37:16.777Z,11.76
2022-12-31T14:40:37.408Z,11.84
2022-12-31T14:43:49.231Z,11.83
2022-12-31T14:46:57.764Z,11.81
2022-12-31T14:50:05.620Z,11.82
2022-12-31T14:53:16.109Z,11.83
2022-12-31T14:56:41.276Z,11.92
2022-12-31T14:59:58.358Z,11.88
2022-12-31T15:03:07.545Z,11.94
2022-12-31T15:06:36.307Z,11.93
2022-12-31T15:10:15.503Z,11.97
2022-12-31T15:13:21.539Z,12.06
2022-12-31T15:16:52.385Z,12.06
2022-12-31T15:20:32.749Z,12.04
2022-12-31T15:23:38.107Z,12.06
2022-12-31T15:26:48.838Z,11.98
2022-12-31T15:29:51.946Z,11.99
2022-12-31T15:32:55.926Z,12.11
2022-12-31T15:36:18.308Z,12.14
2022-12-31T15:39:43.566Z,12.10
2022-12-31T15:42:55.662Z,12.22
2022-12-31T15:45:58.349Z,12.15
2022-12-31T15:49:15.301Z,12.22
2022-12-31T15:52:27.408Z,12.30
2022-12-31T15:55:38.835Z,12.27
2022-12-31T15:58:41.849Z,12.25
2022-12-31T16:01:46.391Z,12.22
2022-12-31T16:04:49.669Z,12.29
2022-12-31T16:07:57.509Z,12.35
2022-12-31T16:11:04.862Z,12.35
2022-12-31T16:14:07.927Z,12.42
2022-12-31T16:17:28.543Z,12.48
2022-12-31T16:20:33.512Z,12.48
2022-12-31T16:23:40.489Z,12.43
2022-12-31T16:26:50.886Z,12.42
2022-12-31T16:30:07.489Z,12.47
2022-12-31T16:33:15.017Z,12.40
2022-12-31T16:36:21.541Z,12.47
2022-12-31T16:39:26.508Z,12.39
2022-12-31T16:42:29.634Z,12.45
2022-12-31T16:45:35.347Z,12.43
2022-12-31T16:48:38.741Z,12.43
2022-12-31T16:51:42.452Z,12.35
2022-12-31T16:54:49.161Z,12.46
2022-12-31T16:57:56.033Z,12.49
2022-12-31T17:01:12.406Z,12.42
2022-12-31T17:04:20.174Z,12.49
2022-12-31T17:07:33.696Z,12.43
2022-12-31T17:10:37.027Z,12.39
2022-12-31T17:13:39.701Z,12.38
2022-12-31T17:17:04.464Z,12.39
2022-12-31T17:20:11.751Z,12.38
2022-12-31T17:23:23.496Z,12.34
2022-12-31T17:26:31.289Z,12.40
2022-12-31T17:29:34.827Z,12.40
2022-12-31T17:32:38.010Z,12.39
2022-12-31T17:35:42.624Z,12.41
2022-12-31T17:38:45.241Z,12.53
2022-12-31T17:41:50.507Z,12.56
2022-12-31T17:44:57.224Z,12.52
2022-12-31T17:48:00.107Z,12.53
2022-12-31T17:51:02.863Z,12.57
2022-12-31T17:54:16.687Z,12.55
2022-12-31T17:57:27.150Z,12.57
2022-12-31T18:00:30.279Z,12.64
2022-12-31T18:03:32.967Z,12.64
2022-12-31T18:06:36.328Z,12.65
2022-12-31T18:09:38.985Z,12.60
2022-12-31T18:12:43.699Z,12.63
2022-12-31T18:15:47.057Z,12.60
2022-12-31T18:18:49.958Z,12.70
2022-12-31T18:21:52.411Z,12.64
2022-12-31T18:24:55.461Z,12.61
2022-12-31T18:27:58.166Z,12.66
2022-12-31T18:31:01.567Z,12.58
2022-12-31T18:34:04.121Z,12.68
2022-12-31T18:37:17.921Z,12.66
2022-12-31T18:40:24.057Z,12.70
2022-12-31T18:43:26.927Z,12.73
2022-12-31T18:46:29.460Z,12.72
2022-12-31T18:49:32.524Z,12.79
2022-12-31T18:52:35.142Z,12.79
2022-12-31T18:55:46.127Z,12.87
2022-12-31T18:58:49.420Z,12.80
2022-12-31T19:01:52.603Z,12.85
2022-12-31T19:04:55.084Z,12.90
2022-12-31T19:07:58.491Z,12.86
2022-12-31T19:11:01.746Z,12.82
2022-12-31T19:14:12.198Z,12.84
2022-12-31T19:17:14.909Z,12.78
2022-12-31T19:20:17.972Z,12.69
2022-12-31T19:23:21.817Z,12.71
2022-12-31T19:26:24.933Z,12.73
2022-12-31T19:29:28.655Z,12.65
2022-12-31T19:32:31.501Z,12.60
2022-12-31T19:35:34.161Z,12.59
2022-12-31T19:38:37.534Z,12.54
2022-12-31T19:41:42.572Z,12.56
2022-12-31T19:44:45.658Z,12.54
2022-12-31T19:47:48.989Z,12.50
2022-12-31T19:50:54.019Z,12.47
2022-12-31T19:53:56.565Z,12.50
2022-12-31T19:56:59.743Z,12.50
2022-12-31T20:00:02.186Z,12.50
2022-12-31T20:03:15.677Z,12.54
2022-12-31T20:06:19.488Z,12.61
2022-12-31T20:09:22.267Z,12.60
2022-12-31T20:12:24.859Z,12.62
2022-12-31T20:15:27.846Z,12.63
2022-12-31T20:18:30.484Z,12.66
2022-12-31T20:21:33.349Z,12.73
2022-12-31T20:24:35.916Z,12.75
2022-12-31T20:27:38.983Z,12.84
2022-12-31T20:30:41.639Z,12.77
2022-12-31T20:33:45.176Z,12.81
2022-12-31T20:36:47.668Z,12.73
2022-12-31T20:39:50.680Z,12.80
2022-12-31T20:42:53.490Z,12.86
2022-12-31T20:45:56.327Z,12.89
2022-12-31T20:49:00.492Z,12.82
2022-12-31T20:52:05.705Z,12.86
2022-12-31T20:55:10.066Z,12.91
2022-12-31T20:58:13.043Z,13.00
2022-12-31T21:01:16.732Z,12.99
2022-12-31T21:04:20.130Z,13.10
2022-12-31T21:07:22.850Z,13.07
2022-12-31T21:10:25.711Z,13.00
2022-12-31T21:13:28.457Z,13.06
2022-12-31T21:16:32.136Z,13.05
2022-12-31T21:19:34.703Z,13.04
2022-12-31T21:22:38.138Z,12.97
2022-12-31T21:25:41.913Z,13.05
2022-12-31T21:28:45.163Z,13.00
2022-12-31T21:31:47.611Z,13.02
2022-12-31T21:35:14.549Z,13.04
2022-12-31T21:38:13.310Z,12.96
2022-12-31T21:41:35.265Z,12.94
2022-12-31T21:44:38.071Z,12.94
2022-12-31T21:47:59.506Z,12.95
2022-12-31T21:51:09.523Z,12.93
2022-12-31T21:54:32.498Z,12.94
2022-12-31T21:57:52.188Z,12.88
2022-12-31T22:01:17.566Z,13.02
2022-12-31T22:04:59.896Z,13.06
2022-12-31T22:07:43.249Z,12.98
2022-12-31T22:10:52.134Z,12.93
2022-12-31T22:13:56.357Z,12.95
2022-12-31T22:16:59.016Z,12.92
2022-12-31T22:20:26.513Z,12.91
2022-12-31T22:23:24.493Z,12.87
2022-12-31T22:26:29.369Z,12.76
2022-12-31T22:29:31.801Z,12.69
2022-12-31T22:32:34.879Z,12.63
2022-12-31T22:35:37.504Z,12.59
2022-12-31T22:38:40.750Z,12.50
2022-12-31T22:41:43.688Z,12.42
2022-12-31T22:44:46.625Z,12.40
2022-12-31T22:47:49.220Z,12.36
2022-12-31T22:50:58.956Z,12.36
2022-12-31T22:54:01.430Z,12.25
2022-12-31T22:57:04.899Z,12.33
2022-12-31T23:00:12.744Z,12.31
2022-12-31T23:03:15.744Z,12.26
2022-12-31T23:06:18.889Z,12.28
2022-12-31T23:09:40.741Z,12.28
2022-12-31T23:12:43.454Z,12.20
2022-12-31T23:16:04.910Z,12.25
2022-12-31T23:19:28.163Z,12.18
2022-12-31T23:22:49.562Z,12.24
2022-12-31T23:25:52.952Z,12.30
2022-12-31T23:28:55.698Z,12.25
2022-12-31T23:31:58.295Z,12.39
2022-12-31T23:35:06.086Z,12.34
2022-12-31T23:38:12.825Z,12.37
2022-12-31T23:41:19.193Z,12.39
2022-12-31T23:44:21.840Z,12.49
2022-12-31T23:47:24.959Z,12.55
2022-12-31T23:50:27.708Z,12.49
2022-12-31T23:53:30.487Z,12.50
2022-12-31T23:56:33.169Z,12.58
2022-12-31T23:59:36.029Z,12.71
